Time;durP1;ratioP1;P1;durP2;ratioP2;P2;SDS_P1;SDS_P2;PMS_P1;PMS_P2;Temp;Humidity;BMP_temperature;BMP_pressure;BME280_temperature;BME280_humidity;BME280_pressure;Samples;Min_cycle;Max_cycle;Signal;HPM_P1;HPM_P2
2021/12/11 00:01:45;;;;;;;73.72;33.97;;;;;;;0.17;100.00;100361.75;5081592;28;20040;-79
2021/12/11 00:04:29;;;;;;;74.57;33.78;;;;;;;0.18;100.00;100368.72;5085771;28;20040;-78
2021/12/11 00:06:54;;;;;;;;;;;;;;;0.26;100.00;100380.81;5083185;28;20059;-78
2021/12/11 00:09:25;;;;;;;77.32;34.85;;;;;;;0.29;100.00;100389.47;5069237;28;20397;-77
2021/12/11 00:12:05;;;;;;;85.10;36.03;;;;;;;0.32;100.00;100384.19;5085459;28;20035;-78
2021/12/11 00:14:32;;;;;;;85.57;37.25;;;;;;;0.36;100.00;100392.84;5083578;28;20039;-79
2021/12/11 00:16:58;;;;;;;80.75;36.05;;;;;;;0.32;100.00;100396.41;5072166;28;20423;-78
2021/12/11 00:19:30;;;;;;;75.68;34.65;;;;;;;0.28;100.00;100397.34;5072715;28;20158;-78
2021/12/11 00:22:06;;;;;;;74.07;35.63;;;;;;;0.24;100.00;100401.75;5088530;28;20500;-79
2021/12/11 00:24:33;;;;;;;80.75;36.45;;;;;;;0.23;100.00;100411.38;5089662;28;20499;-80
2021/12/11 00:27:03;;;;;;;82.63;35.05;;;;;;;0.20;100.00;100418.41;5070607;28;20019;-80
2021/12/11 00:29:31;;;;;;;89.93;37.42;;;;;;;0.18;100.00;100423.69;5085538;28;20092;-80
2021/12/11 00:32:06;;;;;;;82.05;36.40;;;;;;;0.13;100.00;100422.03;5088069;28;20184;-79
2021/12/11 00:34:34;;;;;;;81.90;37.38;;;;;;;0.13;100.00;100437.72;5069911;28;20077;-80
2021/12/11 00:37:04;;;;;;;86.35;37.03;;;;;;;0.10;100.00;100437.75;5080579;28;20170;-79
2021/12/11 00:39:31;;;;;;;87.25;37.20;;;;;;;0.06;100.00;100436.94;5088564;28;20354;-80
2021/12/11 00:42:00;;;;;;;89.32;37.08;;;;;;;0.09;100.00;100451.75;5070442;28;20111;-80
2021/12/11 00:44:40;;;;;;;91.57;38.15;;;;;;;0.04;100.00;100453.53;5079218;28;20032;-80
2021/12/11 00:47:12;;;;;;;88.57;36.15;;;;;;;0.05;100.00;100456.16;5076124;28;20024;-80
2021/12/11 00:49:58;;;;;;;88.97;36.60;;;;;;;0.02;100.00;100465.78;5073335;28;20059;-78
2021/12/11 00:52:37;;;;;;;83.88;36.75;;;;;;;-0.04;100.00;100470.22;5074838;28;20353;-79
2021/12/11 00:55:16;;;;;;;92.28;37.83;;;;;;;-0.11;100.00;100473.81;5081796;28;20059;-78
2021/12/11 00:57:41;;;;;;;83.32;36.80;;;;;;;-0.20;100.00;100471.31;5079209;28;20044;-79
2021/12/11 01:00:12;;;;;;;85.45;37.72;;;;;;;-0.21;100.00;100484.38;5070744;28;20024;-78
2021/12/11 01:02:37;;;;;;;78.18;35.63;;;;;;;-0.27;100.00;100485.34;5081593;28;20063;-78
2021/12/11 01:05:06;;;;;;;78.55;36.03;;;;;;;-0.29;100.00;100490.59;5080361;28;20048;-77
2021/12/11 01:07:33;;;;;;;80.72;34.80;;;;;;;-0.37;100.00;100492.44;5068887;28;20369;-79
2021/12/11 01:10:13;;;;;;;82.18;35.40;;;;;;;-0.36;100.00;100506.38;5068998;28;20432;-79
2021/12/11 01:12:48;;;;;;;80.50;33.90;;;;;;;-0.40;100.00;100513.38;5083380;28;20029;-79
2021/12/11 01:15:31;;;;;;;87.82;35.17;;;;;;;-0.42;100.00;100516.88;5074383;28;20438;-79
2021/12/11 01:20:54;;;;;;;87.18;36.55;;;;;;;-0.52;100.00;100516.13;5081438;28;20036;-77
2021/12/11 01:25:59;;;;;;;83.20;36.35;;;;;;;-0.60;100.00;100525.81;5082116;28;20036;-79
2021/12/11 01:28:24;;;;;;;87.60;37.20;;;;;;;-0.67;100.00;100525.03;5070670;28;20012;-79
2021/12/11 01:30:50;;;;;;;81.10;35.67;;;;;;;-0.69;100.00;100532.00;5072601;28;20119;-79
2021/12/11 01:33:16;;;;;;;86.43;36.25;;;;;;;-0.69;100.00;100547.66;5087337;28;20032;-77
2021/12/11 01:35:42;;;;;;;88.57;36.90;;;;;;;-0.70;100.00;100545.09;5089201;28;20489;-78
2021/12/11 01:38:15;;;;;;;90.18;37.03;;;;;;;-0.72;100.00;100550.31;5086445;28;20032;-79
2021/12/11 01:40:44;;;;;;;81.95;36.03;;;;;;;-0.75;100.00;100552.97;5081063;28;20374;-79
2021/12/11 01:43:10;;;;;;;85.63;35.75;;;;;;;-0.76;100.00;100570.38;5086245;28;20412;-79
2021/12/11 01:45:38;;;;;;;85.00;36.10;;;;;;;-0.79;100.00;100572.19;5084762;28;20020;-78
2021/12/11 01:48:04;;;;;;;82.82;34.60;;;;;;;-0.80;100.00;100584.34;5052373;28;20478;-78
2021/12/11 01:50:37;;;;;;;87.15;34.17;;;;;;;-0.79;100.00;100587.84;5076555;28;20031;-78
2021/12/11 01:53:08;;;;;;;77.93;32.67;;;;;;;-0.79;100.00;100593.06;5086893;28;20016;-78
2021/12/11 01:55:39;;;;;;;78.13;32.35;;;;;;;-0.85;100.00;100587.88;5071995;28;20280;-78
2021/12/11 01:58:10;;;;;;;80.32;31.95;;;;;;;-0.91;100.00;100593.19;5071607;28;20025;-79
2021/12/11 02:00:41;;;;;;;77.07;32.13;;;;;;;-0.88;100.00;100600.97;5085175;28;20032;-78
2021/12/11 02:03:12;;;;;;;75.30;32.40;;;;;;;-0.94;100.00;100607.13;5081240;28;20063;-78
2021/12/11 02:05:40;;;;;;;80.15;33.05;;;;;;;-0.87;100.00;100632.34;5078316;28;20505;-78
2021/12/11 02:08:09;;;;;;;81.95;32.75;;;;;;;-0.87;100.00;100634.94;5084370;28;20114;-78
2021/12/11 02:10:51;;;;;;;85.68;34.40;;;;;;;-0.88;100.00;100638.44;5086024;28;20046;-79
2021/12/11 02:13:24;;;;;;;76.60;33.17;;;;;;;-0.91;100.00;100648.03;5078682;28;20037;-78
2021/12/11 02:15:53;;;;;;;;;;;;;;;-0.91;100.00;100651.53;5074293;28;20104;-78
2021/12/11 02:18:36;;;;;;;73.50;31.27;;;;;;;-0.97;100.00;100640.22;5091792;28;20054;-79
2021/12/11 02:21:08;;;;;;;76.07;30.15;;;;;;;-0.95;100.00;100643.72;5075274;28;20034;-79
2021/12/11 02:23:34;;;;;;;75.25;29.92;;;;;;;-0.96;100.00;100658.53;5088828;28;20028;-79
2021/12/11 02:26:04;;;;;;;79.05;31.50;;;;;;;-0.97;100.00;100659.38;5079033;28;20365;-79
2021/12/11 02:28:39;;;;;;;74.43;30.27;;;;;;;-0.96;100.00;100652.41;5087722;28;20621;-79
2021/12/11 02:31:20;;;;;;;76.43;32.13;;;;;;;-0.96;100.00;100658.53;5072438;28;20035;-79
2021/12/11 02:33:55;;;;;;;77.32;32.80;;;;;;;-0.96;100.00;100663.75;5076092;28;20381;-79
2021/12/11 02:36:25;;;;;;;73.47;32.58;;;;;;;-0.96;100.00;100668.97;5065852;28;20039;-79
2021/12/11 02:38:55;;;;;;;73.15;31.40;;;;;;;-0.95;100.00;100682.91;5053680;28;20034;-79
2021/12/11 02:41:48;;;;;;;75.88;31.88;;;;;;;-0.96;100.00;100683.75;5078932;28;20028;-79
2021/12/11 02:44:23;;;;;;;75.85;30.20;;;;;;;-0.96;100.00;100682.03;5087007;28;20031;-79
2021/12/11 02:47:26;;;;;;;77.50;32.08;;;;;;;-0.93;100.00;100688.97;5087326;28;20028;-79
2021/12/11 02:49:58;;;;;;;74.40;30.38;;;;;;;-0.94;100.00;100695.94;5071085;28;20028;-79
2021/12/11 02:52:27;;;;;;;71.20;31.70;;;;;;;-0.92;100.00;100699.44;5080660;28;20044;-79
2021/12/11 02:54:57;;;;;;;81.75;32.45;;;;;;;-0.92;100.00;100699.44;5078187;28;20028;-76
2021/12/11 02:57:36;;;;;;;77.20;31.42;;;;;;;-0.85;100.00;100705.47;5070700;28;20023;-79
2021/12/11 03:00:14;;;;;;;77.82;32.13;;;;;;;-0.81;100.00;100707.19;5072224;28;20031;-79
2021/12/11 03:02:45;;;;;;;76.32;32.22;;;;;;;-0.80;100.00;100719.38;5068988;28;20177;-79
2021/12/11 03:05:16;;;;;;;77.68;32.47;;;;;;;-0.76;100.00;100715.84;5079238;28;20397;-78
2021/12/11 03:07:49;;;;;;;80.75;33.17;;;;;;;-0.75;100.00;100717.63;5076862;28;20029;-79
2021/12/11 03:10:21;;;;;;;73.00;32.53;;;;;;;-0.74;100.00;100727.19;5070828;28;20424;-79
2021/12/11 03:12:46;;;;;;;81.95;32.40;;;;;;;-0.81;100.00;100717.63;5071925;28;20030;-79
2021/12/11 03:15:15;;;;;;;81.25;32.17;;;;;;;-0.71;100.00;100726.28;5071627;28;20032;-79
2021/12/11 03:17:40;;;;;;;86.60;33.03;;;;;;;-0.70;100.00;100725.44;5086347;28;20056;-79
2021/12/11 03:20:09;;;;;;;85.57;33.63;;;;;;;-0.69;100.00;100733.25;5072540;28;20102;-79
2021/12/11 03:22:34;;;;;;;83.05;32.88;;;;;;;-0.67;100.00;100743.69;5089207;28;20051;-79
2021/12/11 03:25:03;;;;;;;85.88;33.25;;;;;;;-0.63;100.00;100748.00;5089363;28;20093;-79
2021/12/11 03:27:29;;;;;;;85.50;32.42;;;;;;;-0.62;100.00;100745.41;5082190;28;20071;-79
2021/12/11 03:29:54;;;;;;;90.03;34.72;;;;;;;-0.56;100.00;100752.31;5072844;28;20537;-80
2021/12/11 03:32:21;;;;;;;86.82;34.20;;;;;;;-0.51;100.00;100753.16;5081627;28;20435;-79
2021/12/11 03:34:48;;;;;;;94.53;35.55;;;;;;;-0.44;100.00;100759.22;5077259;28;20034;-78
2021/12/11 03:37:17;;;;;;;85.40;35.08;;;;;;;-0.40;100.00;100760.94;5071333;28;20052;-78
2021/12/11 03:39:46;;;;;;;90.05;33.55;;;;;;;-0.37;100.00;100759.16;5070327;28;20090;-78
2021/12/11 03:42:18;;;;;;;85.85;34.47;;;;;;;-0.30;100.00;100771.31;5083133;28;20020;-79
2021/12/11 03:44:44;;;;;;;89.03;35.20;;;;;;;-0.28;100.00;100766.06;5052113;28;20033;-79
2021/12/11 03:47:16;;;;;;;90.93;36.92;;;;;;;-0.26;100.00;100766.91;5070155;28;20028;-79
2021/12/11 03:49:42;;;;;;;87.10;34.03;;;;;;;-0.26;100.00;100759.06;5051478;28;20027;-80
2021/12/11 03:52:09;;;;;;;83.88;33.53;;;;;;;-0.24;100.00;100766.94;5077673;28;20020;-79
2021/12/11 03:54:37;;;;;;;83.28;34.00;;;;;;;-0.20;100.00;100773.88;5069557;28;20027;-79
2021/12/11 03:57:04;;;;;;;83.72;34.05;;;;;;;-0.18;100.00;100779.94;5051643;28;20112;-79
2021/12/11 03:59:31;;;;;;;80.18;33.88;;;;;;;-0.15;100.00;100782.53;5085328;28;20171;-78
2021/12/11 04:02:02;;;;;;;81.93;33.60;;;;;;;-0.12;100.00;100779.91;5079644;28;20020;-79
2021/12/11 04:04:49;;;;;;;76.88;33.95;;;;;;;-0.06;100.00;100785.06;5069192;28;20055;-79
2021/12/11 04:07:18;;;;;;;76.28;32.97;;;;;;;-0.05;100.00;100790.28;5076255;28;20478;-79
2021/12/11 04:09:45;;;;;;;75.63;32.22;;;;;;;-0.03;100.00;100785.94;5079235;28;20114;-79
2021/12/11 04:12:11;;;;;;;77.97;34.35;;;;;;;-0.01;100.00;100792.00;5077996;28;20378;-79
2021/12/11 04:14:42;;;;;;;80.85;34.65;;;;;;;0.00;100.00;100792.91;5072735;28;20028;-77
2021/12/11 04:17:10;;;;;;;82.40;33.80;;;;;;;0.05;100.00;100801.56;5075413;28;20028;-78
2021/12/11 04:19:36;;;;;;;78.97;33.05;;;;;;;0.06;100.00;100805.03;5074031;28;20036;-79
2021/12/11 04:22:03;;;;;;;76.78;32.85;;;;;;;0.08;100.00;100808.50;5086648;28;20024;-78
2021/12/11 04:24:30;;;;;;;78.60;33.60;;;;;;;0.06;100.00;100800.69;5055151;28;20032;-78
2021/12/11 04:26:58;;;;;;;76.60;32.90;;;;;;;0.11;100.00;100805.88;5088476;28;20028;-78
2021/12/11 04:29:24;;;;;;;79.82;33.85;;;;;;;0.16;100.00;100819.78;5089446;28;20043;-78
2021/12/11 04:31:50;;;;;;;82.72;34.45;;;;;;;0.18;100.00;100823.25;5085225;28;20096;-78
2021/12/11 04:34:19;;;;;;;82.03;34.35;;;;;;;0.21;100.00;100823.25;5084755;28;20028;-78
2021/12/11 04:36:52;;;;;;;78.93;33.97;;;;;;;0.21;100.00;100826.72;5078872;28;20449;-78
2021/12/11 04:39:20;;;;;;;79.57;35.53;;;;;;;0.26;100.00;100829.31;5089288;28;20028;-78
2021/12/11 04:41:55;;;;;;;79.43;35.58;;;;;;;0.27;100.00;100820.56;5079271;28;20278;-79
2021/12/11 04:44:33;;;;;;;81.03;35.10;;;;;;;0.27;100.00;100827.56;5089605;28;20452;-79
2021/12/11 04:46:59;;;;;;;82.32;35.97;;;;;;;0.30;100.00;100831.00;5078685;28;20040;-80
2021/12/11 04:49:35;;;;;;;77.47;34.45;;;;;;;0.34;100.00;100829.25;5061757;28;20473;-80
2021/12/11 04:52:04;;;;;;;78.28;34.25;;;;;;;0.36;100.00;100830.06;5073609;28;20036;-80
2021/12/11 04:54:45;;;;;;;77.47;33.90;;;;;;;0.33;100.00;100836.19;5081371;28;20043;-80
2021/12/11 05:00:08;;;;;;;78.22;32.58;;;;;;;0.36;100.00;100844.03;5068793;28;20115;-80
2021/12/11 05:05:55;;;;;;;76.15;32.83;;;;;;;0.37;100.00;100852.75;5086040;28;20040;-79
2021/12/11 05:08:48;;;;;;;76.30;30.95;;;;;;;0.37;100.00;100851.00;5068111;28;20355;-79
2021/12/11 05:11:04;;;;;;;80.57;33.40;;;;;;;0.48;100.00;100867.50;5082542;28;20040;-79
2021/12/11 05:13:30;;;;;;;75.95;32.22;;;;;;;0.48;100.00;100872.72;5091423;28;20028;-80
2021/12/11 05:16:06;;;;;;;81.95;33.20;;;;;;;0.49;100.00;100879.69;5091364;28;20024;-80
2021/12/11 05:18:35;;;;;;;87.35;33.08;;;;;;;0.51;100.00;100884.06;5091867;28;20401;-79
2021/12/11 05:21:04;;;;;;;74.57;31.80;;;;;;;0.43;100.00;100866.66;5088496;28;20046;-80
2021/12/11 05:23:30;;;;;;;85.80;33.47;;;;;;;0.50;100.00;100875.31;5087786;28;20405;-79
2021/12/11 05:25:56;;;;;;;74.43;32.10;;;;;;;0.51;100.00;100881.47;5082500;28;20050;-79
2021/12/11 05:28:23;;;;;;;75.30;33.15;;;;;;;0.49;100.00;100887.53;5083301;28;21053;-79
2021/12/11 05:30:51;;;;;;;89.28;33.58;;;;;;;0.52;100.00;100891.03;5087298;28;20055;-78
2021/12/11 05:33:18;;;;;;;74.05;32.08;;;;;;;0.54;100.00;100897.13;5076842;28;20478;-79
2021/12/11 05:35:44;;;;;;;84.70;34.85;;;;;;;0.57;100.00;100897.09;5073163;28;20393;-77
2021/12/11 05:38:12;;;;;;;94.32;36.35;;;;;;;0.56;100.00;100898.84;5086326;28;20036;-78
2021/12/11 05:40:41;;;;;;;81.63;34.15;;;;;;;0.61;100.00;100917.13;5088329;28;20107;-79
2021/12/11 05:43:07;;;;;;;89.07;34.88;;;;;;;0.56;100.00;100903.22;5081962;28;20032;-79
2021/12/11 05:45:34;;;;;;;92.93;34.88;;;;;;;0.62;100.00;100914.50;5087104;28;20107;-79
2021/12/11 05:48:00;;;;;;;85.93;33.95;;;;;;;0.60;100.00;100918.91;5074544;28;20069;-79
2021/12/11 05:50:34;;;;;;;93.97;36.40;;;;;;;0.65;100.00;100926.72;5063226;28;20469;-79
2021/12/11 05:53:00;;;;;;;85.60;35.25;;;;;;;0.62;100.00;100921.50;5081959;28;20044;-80
2021/12/11 05:55:29;;;;;;;90.38;34.75;;;;;;;0.64;100.00;100924.97;5075642;28;20036;-79
2021/12/11 05:57:57;;;;;;;91.72;34.90;;;;;;;0.66;100.00;100928.44;5091135;28;20028;-78
2021/12/11 06:00:31;;;;;;;77.15;35.15;;;;;;;0.60;100.00;100918.91;5081092;28;20057;-80
2021/12/11 06:02:57;;;;;;;85.97;34.58;;;;;;;0.61;100.00;100936.34;5071525;28;20040;-79
2021/12/11 06:05:22;;;;;;;85.70;34.42;;;;;;;0.58;100.00;100935.50;5071870;28;20035;-79
2021/12/11 06:07:48;;;;;;;87.03;34.67;;;;;;;0.59;100.00;100939.88;5072479;28;20398;-79
2021/12/11 06:10:18;;;;;;;83.13;35.10;;;;;;;0.60;100.00;100941.59;5080369;28;20122;-79
2021/12/11 06:12:46;;;;;;;87.68;35.30;;;;;;;0.64;100.00;100949.41;5090628;28;20028;-80
2021/12/11 06:15:12;;;;;;;86.95;35.50;;;;;;;0.64;100.00;100935.47;5074325;28;20394;-79
2021/12/11 06:17:41;;;;;;;86.22;33.53;;;;;;;0.65;100.00;100929.31;5072259;28;20115;-79
2021/12/11 06:20:09;;;;;;;88.57;35.67;;;;;;;0.59;100.00;100934.63;5087272;28;20530;-76
2021/12/11 06:22:36;;;;;;;80.30;33.03;;;;;;;0.56;100.00;100947.75;5092183;28;20020;-78
2021/12/11 06:25:07;;;;;;;81.60;33.13;;;;;;;0.51;100.00;100946.94;5083691;28;20020;-79
2021/12/11 06:27:32;;;;;;;88.88;35.10;;;;;;;0.55;100.00;100964.34;5077715;28;20028;-78
2021/12/11 06:29:58;;;;;;;82.38;33.75;;;;;;;0.58;100.00;100967.78;5085699;28;20020;-78
2021/12/11 06:32:24;;;;;;;90.85;36.05;;;;;;;0.58;100.00;100969.53;5085262;28;20120;-79
2021/12/11 06:34:53;;;;;;;89.15;36.45;;;;;;;0.63;100.00;100981.75;5077376;28;20036;-79
2021/12/11 06:37:21;;;;;;;82.70;34.80;;;;;;;0.62;100.00;100982.59;5071945;28;20032;-79
2021/12/11 06:39:48;;;;;;;85.82;34.75;;;;;;;0.60;100.00;100978.28;5080915;28;20059;-77
2021/12/11 06:42:14;;;;;;;84.30;34.17;;;;;;;0.64;100.00;100990.47;5089712;28;20028;-79
2021/12/11 06:44:40;;;;;;;87.50;35.90;;;;;;;0.63;100.00;100988.75;5089536;28;20028;-80
2021/12/11 06:47:09;;;;;;;88.03;35.50;;;;;;;0.60;100.00;100996.63;5085548;28;20066;-79
2021/12/11 06:49:37;;;;;;;82.13;34.30;;;;;;;0.65;100.00;101006.16;5087568;28;20064;-80
2021/12/11 06:52:07;;;;;;;82.93;34.17;;;;;;;0.65;100.00;100992.19;5090455;28;20601;-79
2021/12/11 06:54:32;;;;;;;87.53;35.88;;;;;;;0.76;100.00;101018.31;5086718;28;20476;-79
2021/12/11 06:56:58;;;;;;;91.60;37.00;;;;;;;0.82;100.00;101011.25;5083408;28;20102;-79
2021/12/11 06:59:24;;;;;;;96.72;38.65;;;;;;;0.88;100.00;101015.56;5085819;28;20085;-79
2021/12/11 07:01:50;;;;;;;98.63;40.40;;;;;;;0.93;100.00;101019.06;5083175;28;20043;-79
2021/12/11 07:04:16;;;;;;;100.18;38.63;;;;;;;0.99;100.00;101025.09;5072663;28;20029;-79
2021/12/11 07:06:45;;;;;;;105.25;40.88;;;;;;;1.06;100.00;101032.91;5082778;28;20076;-79
2021/12/11 07:09:13;;;;;;;105.65;42.17;;;;;;;1.09;100.00;101023.28;5075847;28;20114;-79
2021/12/11 07:11:39;;;;;;;105.88;40.05;;;;;;;1.12;100.00;101031.09;5088935;28;20028;-79
2021/12/11 07:14:06;;;;;;;121.55;42.97;;;;;;;1.17;100.00;101031.94;5084160;28;20055;-78
2021/12/11 07:16:32;;;;;;;121.60;44.08;;;;;;;1.23;100.00;101033.63;5081677;28;20032;-78
2021/12/11 07:18:58;;;;;;;119.30;42.90;;;;;;;1.21;100.00;101031.03;5081830;28;20044;-78
2021/12/11 07:21:23;;;;;;;113.10;42.92;;;;;;;1.21;100.00;101024.91;5078090;28;20043;-78
2021/12/11 07:23:49;;;;;;;117.50;42.97;;;;;;;1.30;100.00;101037.94;5088368;28;20095;-79
2021/12/11 07:26:24;;;;;;;116.25;43.08;;;;;;;1.34;100.00;101046.63;5077193;28;20029;-79
2021/12/11 07:28:55;;;;;;;122.10;44.72;;;;;;;1.35;100.00;101046.63;5068155;28;20489;-80
2021/12/11 07:31:22;;;;;;;124.60;46.05;;;;;;;1.39;100.00;101050.09;5069553;28;20036;-78
2021/12/11 07:33:48;;;;;;;124.68;45.25;;;;;;;1.40;100.00;101057.94;5057268;28;20169;-77
2021/12/11 07:36:14;;;;;;;125.30;45.85;;;;;;;1.44;100.00;101061.41;5078470;28;20109;-78
2021/12/11 07:38:40;;;;;;;134.18;45.78;;;;;;;1.46;100.00;101068.38;5071485;28;20492;-77
2021/12/11 07:41:09;;;;;;;126.40;46.03;;;;;;;1.48;100.00;101066.59;5085202;28;20435;-77
2021/12/11 07:43:36;;;;;;;124.22;48.58;;;;;;;1.51;100.00;101075.34;5073308;28;20115;-78
2021/12/11 07:46:05;;;;;;;127.35;48.65;;;;;;;1.52;100.00;101072.69;5075902;28;20031;-78
2021/12/11 07:48:30;;;;;;;118.00;46.22;;;;;;;1.51;100.00;101075.34;5087772;28;20076;-79
2021/12/11 07:50:56;;;;;;;118.00;45.88;;;;;;;1.47;100.00;101059.63;5089978;28;20479;-79
2021/12/11 07:53:22;;;;;;;120.07;45.08;;;;;;;1.58;100.00;101083.09;5088600;28;20031;-78
2021/12/11 07:55:49;;;;;;;112.65;43.28;;;;;;;1.59;100.00;101087.50;5077896;28;20028;-78
2021/12/11 07:58:15;;;;;;;113.00;42.97;;;;;;;1.62;100.00;101087.44;5069550;28;20155;-78
2021/12/11 08:00:42;;;;;;;119.13;45.13;;;;;;;1.68;100.00;101095.25;5083736;28;20047;-77
2021/12/11 08:03:10;;;;;;;114.72;44.17;;;;;;;1.68;100.00;101100.50;5076341;28;20038;-78
2021/12/11 08:05:39;;;;;;;103.40;41.42;;;;;;;1.69;100.00;101099.63;5058688;28;20020;-77
2021/12/11 08:08:06;;;;;;;117.07;45.90;;;;;;;1.80;100.00;101110.00;5081167;28;20024;-77
2021/12/11 08:10:34;;;;;;;105.95;40.70;;;;;;;1.79;100.00;101104.75;5087482;28;20024;-78
2021/12/11 08:13:00;;;;;;;104.40;40.05;;;;;;;1.82;100.00;101110.00;5088817;28;20391;-78
2021/12/11 08:15:26;;;;;;;101.88;39.92;;;;;;;1.91;100.00;101123.88;5080916;28;20017;-78
2021/12/11 08:17:54;;;;;;;92.38;35.97;;;;;;;1.96;100.00;101122.06;5071700;28;20199;-78
2021/12/11 08:20:23;;;;;;;87.05;32.78;;;;;;;2.04;100.00;101129.00;5074439;28;20059;-78
2021/12/11 08:22:50;;;;;;;83.75;31.55;;;;;;;2.05;100.00;101114.97;5085033;28;20036;-79
2021/12/11 08:25:18;;;;;;;77.35;29.63;;;;;;;2.17;100.00;101128.84;5088418;28;20031;-79
2021/12/11 08:27:43;;;;;;;71.65;27.33;;;;;;;2.19;100.00;101121.81;5071917;28;20082;-79
2021/12/11 08:30:09;;;;;;;60.15;23.50;;;;;;;2.20;100.00;101127.94;5077669;28;20572;-80
2021/12/11 08:32:35;;;;;;;60.75;23.95;;;;;;;2.20;100.00;101138.44;5082965;28;20493;-80
2021/12/11 08:35:03;;;;;;;55.92;23.63;;;;;;;2.09;100.00;101129.81;5069765;28;20025;-79
2021/12/11 08:37:29;;;;;;;62.60;23.05;;;;;;;2.10;100.00;101147.31;5067962;28;20029;-78
2021/12/11 08:39:55;;;;;;;53.70;20.77;;;;;;;2.04;100.00;101147.38;5082507;28;20056;-78
2021/12/11 08:42:23;;;;;;;52.05;21.02;;;;;;;2.11;100.00;101151.69;5087043;28;20051;-79
2021/12/11 08:44:59;;;;;;;57.45;21.60;;;;;;;2.15;100.00;101154.25;5088453;28;20531;-79
2021/12/11 08:47:25;;;;;;;55.00;20.25;;;;;;;2.18;100.00;101148.09;5087963;28;20105;-80
2021/12/11 08:49:53;;;;;;;57.00;20.00;;;;;;;2.23;100.00;101164.66;5081483;28;20089;-78
2021/12/11 08:52:30;;;;;;;55.08;20.70;;;;;;;2.19;100.00;101153.31;5080593;28;20103;-78
2021/12/11 08:54:58;;;;;;;54.20;17.92;;;;;;;2.29;100.00;101182.97;5079214;28;20028;-78
2021/12/11 08:57:28;;;;;;;51.28;16.83;;;;;;;2.34;100.00;101175.94;5082579;28;20052;-78
2021/12/11 08:59:57;;;;;;;41.10;14.50;;;;;;;2.39;100.00;101173.25;5079098;28;20097;-78
2021/12/11 09:02:33;;;;;;;44.65;14.70;;;;;;;2.46;100.00;101169.63;5069288;28;20035;-79
2021/12/11 09:05:04;;;;;;;29.65;13.55;;;;;;;2.53;100.00;101179.19;5067817;28;20027;-79
2021/12/11 09:07:45;;;;;;;38.92;13.13;;;;;;;2.66;100.00;101193.91;5067184;28;20024;-80
2021/12/11 09:10:26;;;;;;;32.63;12.18;;;;;;;2.71;100.00;101199.97;5078589;28;20173;-79
2021/12/11 09:13:07;;;;;;;30.33;11.05;;;;;;;2.73;100.00;101211.34;5076609;28;20031;-78
2021/12/11 09:15:40;;;;;;;33.45;10.60;;;;;;;2.84;100.00;101216.44;5081024;28;20615;-79
2021/12/11 09:18:13;;;;;;;42.40;9.37;;;;;;;2.89;100.00;101222.53;5084722;28;20089;-78
2021/12/11 09:20:49;;;;;;;48.33;10.30;;;;;;;2.91;100.00;101220.75;5086139;28;20284;-77
2021/12/11 09:23:24;;;;;;;24.88;8.70;;;;;;;2.96;100.00;101223.31;5069166;28;20085;-77
2021/12/11 09:25:59;;;;;;;27.15;8.38;;;;;;;3.07;100.00;101238.97;5078094;28;20028;-77
2021/12/11 09:28:43;;;;;;;28.45;8.90;;;;;;;3.27;100.00;101244.81;5081489;28;20513;-78
2021/12/11 09:31:23;;;;;;;27.30;7.57;;;;;;;3.29;100.00;101257.94;5084576;28;20029;-77
2021/12/11 09:33:57;;;;;;;24.33;8.23;;;;;;;3.25;100.00;101252.72;5072536;28;20036;-79
2021/12/11 09:36:32;;;;;;;;;;;;;;;3.32;100.00;101260.53;5077173;28;20100;-78
2021/12/11 09:39:21;;;;;;;21.67;7.40;;;;;;;3.39;100.00;101263.06;5076693;28;20400;-78
2021/12/11 09:41:46;;;;;;;21.70;7.70;;;;;;;3.48;100.00;101265.53;5079054;28;20028;-79
2021/12/11 09:44:23;;;;;;;26.48;8.18;;;;;;;3.54;100.00;101277.72;5066646;28;20066;-79
2021/12/11 09:46:57;;;;;;;28.80;8.50;;;;;;;3.63;100.00;101277.59;5088681;28;20016;-79
2021/12/11 09:49:27;;;;;;;17.92;7.55;;;;;;;3.80;100.00;101284.34;5086313;28;20489;-79
2021/12/11 09:52:02;;;;;;;22.80;7.55;;;;;;;4.00;100.00;101285.78;5072268;28;20504;-78
2021/12/11 09:54:29;;;;;;;25.52;7.35;;;;;;;4.27;100.00;101290.63;5070893;28;20020;-79
2021/12/11 09:56:59;;;;;;;19.40;7.30;;;;;;;4.50;100.00;101296.31;5077813;28;20019;-79
2021/12/11 09:59:27;;;;;;;20.55;6.47;;;;;;;4.62;100.00;101292.59;5089766;28;20028;-79
2021/12/11 10:01:56;;;;;;;17.95;6.20;;;;;;;4.62;100.00;101292.59;5090920;28;20023;-79
2021/12/11 10:04:32;;;;;;;16.73;6.00;;;;;;;4.74;100.00;101310.81;5092151;28;20226;-79
2021/12/11 10:07:24;;;;;;;21.17;6.10;;;;;;;4.81;100.00;101312.44;5090551;28;20081;-79
2021/12/11 10:09:52;;;;;;;20.83;5.15;;;;;;;4.85;100.00;101313.22;5086868;28;20465;-79
2021/12/11 10:12:25;;;;;;;17.33;5.82;;;;;;;4.92;100.00;101317.50;5090392;28;20020;-79
2021/12/11 10:14:55;;;;;;;16.37;5.50;;;;;;;4.92;100.00;101318.34;5080230;28;20028;-79
2021/12/11 10:17:32;;;;;;;20.95;6.50;;;;;;;4.93;100.00;101313.94;5089164;28;20062;-79
2021/12/11 10:20:00;;;;;;;14.52;5.25;;;;;;;4.95;100.00;101326.22;5068765;28;20052;-80
2021/12/11 10:22:31;;;;;;;10.27;4.80;;;;;;;4.97;100.00;101328.81;5075129;28;20040;-78
2021/12/11 10:24:57;;;;;;;17.73;4.88;;;;;;;4.92;100.00;101333.31;5081946;28;20025;-79
2021/12/11 10:27:25;;;;;;;16.13;4.93;;;;;;;4.87;100.00;101337.81;5072379;28;20458;-79
2021/12/11 10:29:52;;;;;;;15.23;5.43;;;;;;;4.78;100.00;101340.63;5089824;28;20028;-80
2021/12/11 10:32:26;;;;;;;15.98;5.15;;;;;;;4.75;100.00;101345.06;5088686;28;20404;-79
2021/12/11 10:34:55;;;;;;;17.23;5.97;;;;;;;4.80;100.00;101344.97;5089447;28;20016;-80
2021/12/11 10:37:33;;;;;;;15.45;6.32;;;;;;;4.78;100.00;101349.41;5088385;28;20028;-79
2021/12/11 10:40:05;;;;;;;18.65;6.00;;;;;;;4.81;100.00;101370.47;5081428;28;20042;-80
2021/12/11 10:42:30;;;;;;;16.73;5.65;;;;;;;4.81;100.00;101348.47;5085316;28;20024;-80
2021/12/11 10:44:58;;;;;;;19.00;5.65;;;;;;;4.85;100.00;101358.06;5075948;28;20025;-80
2021/12/11 10:47:33;;;;;;;18.23;5.57;;;;;;;4.81;100.00;101353.75;5073009;28;20023;-80
2021/12/11 10:50:02;;;;;;;18.25;5.75;;;;;;;4.82;100.00;101371.31;5089797;28;20067;-79
2021/12/11 10:52:30;;;;;;;18.95;5.72;;;;;;;4.79;100.00;101371.38;5090779;28;20488;-79
2021/12/11 10:55:00;;;;;;;19.08;5.72;;;;;;;4.72;100.00;101373.25;5079057;28;20025;-80
2021/12/11 10:57:27;;;;;;;18.35;5.90;;;;;;;4.68;100.00;101375.09;5074606;28;20013;-80
2021/12/11 10:59:56;;;;;;;16.52;6.07;;;;;;;4.68;100.00;101379.47;5086810;28;20032;-80
2021/12/11 11:02:28;;;;;;;15.23;5.85;;;;;;;4.73;100.00;101383.78;5088972;28;20407;-80
2021/12/11 11:05:02;;;;;;;14.52;5.85;;;;;;;4.83;100.00;101386.25;5086946;28;20016;-79
2021/12/11 11:07:28;;;;;;;14.48;6.43;;;;;;;4.94;100.00;101400.13;5077952;28;20426;-80
2021/12/11 11:09:57;;;;;;;12.40;6.28;;;;;;;5.02;100.00;101402.59;5077811;28;20021;-80
2021/12/11 11:12:26;;;;;;;11.20;6.20;;;;;;;5.00;100.00;101406.13;5081004;28;20026;-79
2021/12/11 11:14:53;;;;;;;19.30;7.20;;;;;;;5.04;100.00;101414.00;5075882;28;20078;-80
2021/12/11 11:17:23;;;;;;;15.70;6.10;;;;;;;5.05;100.00;101416.59;5083237;28;20031;-80
2021/12/11 11:19:49;;;;;;;18.95;7.32;;;;;;;5.00;100.00;101421.97;5088604;28;20039;-80
2021/12/11 11:22:20;;;;;;;15.60;6.65;;;;;;;5.04;100.00;101425.41;5100238;28;20080;-80
2021/12/11 11:24:50;;;;;;;16.58;6.78;;;;;;;5.13;100.00;101422.59;5079803;28;20024;-80
2021/12/11 11:27:17;;;;;;;16.98;6.40;;;;;;;5.28;100.00;101432.00;5072693;28;20035;-79
2021/12/11 11:29:44;;;;;;;17.52;6.30;;;;;;;5.23;100.00;101432.09;5081176;28;20584;-79
2021/12/11 11:32:13;;;;;;;20.25;6.50;;;;;;;5.24;100.00;101439.09;5078786;28;20113;-80
2021/12/11 11:34:40;;;;;;;14.77;6.05;;;;;;;5.17;100.00;101436.59;5096626;28;20024;-80